createdAt,value
2018-05-31T00:00:11.417Z,70.57
2018-05-31T00:02:40.277Z,71.19
2018-05-31T00:05:09.115Z,71.38
2018-05-31T00:07:38.000Z,71.59
2018-05-31T00:10:06.849Z,71.43
2018-05-31T00:12:35.738Z,71.05
2018-05-31T00:15:04.726Z,70.98
2018-05-31T00:17:33.564Z,71.23
2018-05-31T00:20:02.417Z,71.20
2018-05-31T00:22:31.276Z,71.38
2018-05-31T00:25:00.103Z,71.12
2018-05-31T00:27:28.973Z,71.57
2018-05-31T00:29:59.043Z,71.39
2018-05-31T00:32:27.886Z,71.66
2018-05-31T00:34:56.717Z,71.88
2018-05-31T00:37:26.945Z,71.78
2018-05-31T00:39:55.835Z,72.28
2018-05-31T00:42:24.670Z,72.70
2018-05-31T00:44:53.517Z,72.77
2018-05-31T00:47:23.638Z,72.92
2018-05-31T00:49:52.465Z,73.03
2018-05-31T00:52:21.292Z,73.17
2018-05-31T00:54:52.045Z,73.17
2018-05-31T00:57:20.878Z,73.19
2018-05-31T00:59:49.813Z,73.32
2018-05-31T01:02:18.690Z,73.23
2018-05-31T01:04:47.557Z,73.47
2018-05-31T01:07:16.392Z,73.75
2018-05-31T01:09:45.273Z,73.03
2018-05-31T01:12:14.126Z,73.72
2018-05-31T01:14:44.607Z,73.72
2018-05-31T01:17:13.447Z,73.56
2018-05-31T01:19:42.338Z,73.94
2018-05-31T01:22:12.606Z,72.93
2018-05-31T01:24:41.465Z,72.65
2018-05-31T01:27:10.380Z,73.75
2018-05-31T01:29:39.172Z,74.11
2018-05-31T01:32:09.699Z,74.27
2018-05-31T01:34:38.478Z,73.93
2018-05-31T01:37:07.331Z,73.92
2018-05-31T01:39:37.821Z,73.65
2018-05-31T01:42:06.681Z,73.89
2018-05-31T01:44:35.564Z,74.49
2018-05-31T01:47:04.461Z,74.84
2018-05-31T01:49:33.313Z,73.88
2018-05-31T01:52:02.142Z,73.38
2018-05-31T01:54:31.000Z,74.41
2018-05-31T01:56:59.821Z,73.54
2018-05-31T01:59:29.872Z,74.54
2018-05-31T02:01:58.728Z,73.61
2018-05-31T02:04:27.646Z,74.15
2018-05-31T02:06:56.520Z,74.37
2018-05-31T02:09:25.384Z,74.23
2018-05-31T02:11:54.276Z,74.76
2018-05-31T02:14:23.093Z,74.73
2018-05-31T02:16:52.035Z,74.85
2018-05-31T02:19:20.873Z,74.96
2018-05-31T02:21:49.745Z,75.19
2018-05-31T02:24:18.609Z,74.94
2018-05-31T02:26:47.508Z,74.37
2018-05-31T02:29:16.422Z,75.17
2018-05-31T02:31:45.313Z,75.04
2018-05-31T02:34:14.181Z,74.90
2018-05-31T02:36:43.049Z,75.51
2018-05-31T02:39:12.065Z,74.92
2018-05-31T02:41:40.899Z,75.10
2018-05-31T02:44:09.767Z,75.39
2018-05-31T02:46:38.600Z,75.42
2018-05-31T02:49:07.457Z,75.12
2018-05-31T02:51:36.342Z,75.73
2018-05-31T02:54:05.223Z,75.74
2018-05-31T02:56:34.151Z,76.02
2018-05-31T02:59:03.013Z,74.97
2018-05-31T03:01:31.868Z,75.86
2018-05-31T03:04:00.741Z,76.22
2018-05-31T03:06:29.592Z,76.30
2018-05-31T03:08:58.460Z,76.47
2018-05-31T03:11:27.326Z,76.21
2018-05-31T03:13:56.203Z,75.18
2018-05-31T03:16:25.041Z,75.84
2018-05-31T03:18:53.929Z,75.87
2018-05-31T03:21:22.793Z,76.10
2018-05-31T03:23:51.649Z,76.28
2018-05-31T03:26:20.513Z,76.11
2018-05-31T03:28:49.476Z,75.91
2018-05-31T03:31:18.370Z,75.97
2018-05-31T03:33:47.238Z,76.20
2018-05-31T03:36:16.101Z,75.39
2018-05-31T03:38:44.944Z,76.16
2018-05-31T03:41:13.807Z,75.98
2018-05-31T03:43:42.667Z,75.75
2018-05-31T03:46:11.540Z,75.29
2018-05-31T03:48:40.394Z,75.17
2018-05-31T03:51:09.218Z,75.31
2018-05-31T03:53:38.079Z,75.21
2018-05-31T03:56:06.888Z,75.48
2018-05-31T03:58:35.756Z,76.04
2018-05-31T04:01:04.633Z,75.45
2018-05-31T04:03:33.453Z,76.23
2018-05-31T04:06:02.304Z,76.36
2018-05-31T04:08:31.148Z,76.39
2018-05-31T04:11:00.013Z,75.95
2018-05-31T04:13:28.898Z,76.12
2018-05-31T04:15:57.737Z,75.41
2018-05-31T04:18:26.559Z,76.12
2018-05-31T04:20:55.404Z,76.04
2018-05-31T04:23:24.249Z,76.18
2018-05-31T04:25:53.091Z,76.03
2018-05-31T04:28:21.930Z,76.10
2018-05-31T04:30:50.758Z,76.07
2018-05-31T04:33:19.628Z,76.16
2018-05-31T04:35:48.469Z,75.88
2018-05-31T04:38:20.535Z,75.43
2018-05-31T04:40:49.369Z,74.28
2018-05-31T04:43:18.205Z,75.01
2018-05-31T04:45:47.069Z,74.28
2018-05-31T04:48:15.936Z,75.03
2018-05-31T04:50:44.784Z,75.03
2018-05-31T04:53:13.660Z,75.10
2018-05-31T04:55:42.461Z,75.44
2018-05-31T04:58:11.318Z,75.27
2018-05-31T05:00:40.166Z,75.52
2018-05-31T05:03:08.996Z,75.36
2018-05-31T05:05:37.845Z,75.16
2018-05-31T05:08:06.678Z,74.64
2018-05-31T05:10:35.539Z,74.17
2018-05-31T05:13:04.538Z,73.96
2018-05-31T05:15:33.373Z,74.54
2018-05-31T05:18:02.249Z,74.87
2018-05-31T05:20:31.085Z,74.64
2018-05-31T05:22:59.967Z,74.40
2018-05-31T05:25:28.799Z,74.26
2018-05-31T05:27:57.632Z,74.26
2018-05-31T05:30:26.483Z,74.16
2018-05-31T05:32:55.371Z,73.69
2018-05-31T05:35:24.268Z,73.41
2018-05-31T05:37:53.147Z,73.09
2018-05-31T05:40:22.015Z,72.45
2018-05-31T05:42:50.854Z,72.64
2018-05-31T05:45:19.721Z,72.49
2018-05-31T05:47:48.574Z,72.38
2018-05-31T05:50:17.447Z,72.46
2018-05-31T05:52:46.359Z,71.82
2018-05-31T05:55:15.211Z,71.70
2018-05-31T05:57:44.066Z,71.69
2018-05-31T06:00:12.907Z,70.62
2018-05-31T06:02:41.779Z,70.53
2018-05-31T06:05:10.616Z,70.54
2018-05-31T06:07:39.482Z,69.62
2018-05-31T06:10:08.361Z,69.30
2018-05-31T06:12:37.200Z,68.90
2018-05-31T06:15:06.095Z,68.69
2018-05-31T06:17:34.928Z,68.36
2018-05-31T06:20:03.808Z,67.20
2018-05-31T06:22:32.643Z,66.42
2018-05-31T06:25:01.499Z,63.85
2018-05-31T06:27:30.341Z,60.54
2018-05-31T06:29:59.214Z,57.16
2018-05-31T06:32:28.073Z,54.00
2018-05-31T06:34:56.960Z,50.98
2018-05-31T06:37:25.894Z,47.86
2018-05-31T06:39:54.746Z,45.82
2018-05-31T06:42:23.647Z,43.73
2018-05-31T06:44:52.502Z,42.43
2018-05-31T06:47:21.316Z,41.30
2018-05-31T06:49:50.260Z,40.06
2018-05-31T06:52:19.171Z,39.01
2018-05-31T06:54:48.160Z,39.01
2018-05-31T06:57:17.722Z,38.00
2018-05-31T06:59:46.614Z,37.42
2018-05-31T07:02:15.471Z,35.83
2018-05-31T07:04:44.357Z,34.54
2018-05-31T07:07:13.373Z,33.94
2018-05-31T07:09:45.279Z,33.95
2018-05-31T07:12:17.107Z,32.53
2018-05-31T07:14:43.948Z,31.18
2018-05-31T07:17:17.792Z,30.61
2018-05-31T07:19:45.618Z,30.91
2018-05-31T07:22:15.123Z,29.30
2018-05-31T07:24:46.241Z,30.41
2018-05-31T07:27:18.034Z,29.86
2018-05-31T07:29:47.199Z,29.41
2018-05-31T07:32:19.276Z,29.13
2018-05-31T07:34:48.979Z,28.56
2018-05-31T07:37:18.086Z,27.74
2018-05-31T07:39:47.290Z,27.45
2018-05-31T07:42:16.556Z,27.89
2018-05-31T07:44:45.422Z,28.14
2018-05-31T07:47:16.496Z,27.94
2018-05-31T07:49:45.924Z,27.49
2018-05-31T07:52:15.220Z,28.11
2018-05-31T07:54:47.428Z,26.54
2018-05-31T07:57:19.348Z,26.35
2018-05-31T07:59:48.469Z,26.08
2018-05-31T08:02:20.399Z,25.65
2018-05-31T08:04:49.442Z,25.24
2018-05-31T08:07:19.852Z,25.40
2018-05-31T08:09:50.530Z,25.72
2018-05-31T08:12:20.878Z,25.26
2018-05-31T08:14:53.739Z,25.96
2018-05-31T08:17:28.318Z,25.71
2018-05-31T08:20:02.669Z,25.10
2018-05-31T08:22:33.377Z,24.64
2018-05-31T08:25:02.826Z,25.24
2018-05-31T08:27:34.464Z,24.68
2018-05-31T08:30:03.900Z,24.76
2018-05-31T08:32:34.139Z,24.51
2018-05-31T08:35:03.303Z,23.02
2018-05-31T08:37:32.399Z,23.93
2018-05-31T08:40:01.595Z,25.66
2018-05-31T08:42:30.979Z,28.78
2018-05-31T08:45:00.386Z,32.44
2018-05-31T08:47:29.691Z,35.62
2018-05-31T08:49:58.743Z,38.78
2018-05-31T08:52:27.949Z,39.42
2018-05-31T08:55:00.171Z,41.02
2018-05-31T08:57:29.303Z,43.08
2018-05-31T08:59:58.690Z,43.71
2018-05-31T09:02:27.789Z,45.29
2018-05-31T09:04:56.962Z,45.82
2018-05-31T09:07:26.439Z,46.57
2018-05-31T09:09:55.813Z,47.87
2018-05-31T09:12:27.847Z,49.25
2018-05-31T09:15:00.407Z,50.94
2018-05-31T09:17:29.544Z,51.75
2018-05-31T09:19:58.583Z,50.78
2018-05-31T09:22:27.925Z,52.16
2018-05-31T09:24:57.180Z,52.87
2018-05-31T09:27:26.721Z,53.19
2018-05-31T09:29:59.465Z,52.96
2018-05-31T09:32:30.342Z,53.91
2018-05-31T09:34:59.412Z,53.92
2018-05-31T09:37:28.443Z,54.72
2018-05-31T09:40:02.059Z,54.50
2018-05-31T09:42:31.590Z,54.41
2018-05-31T09:45:01.409Z,52.78
2018-05-31T09:47:33.532Z,53.82
2018-05-31T09:50:02.997Z,52.87
2018-05-31T09:52:33.667Z,53.72
2018-05-31T09:55:03.091Z,53.70
2018-05-31T09:57:32.311Z,53.39
2018-05-31T10:00:01.760Z,54.00
2018-05-31T10:02:34.902Z,53.51
2018-05-31T10:05:04.485Z,53.50
2018-05-31T10:07:34.398Z,53.76
2018-05-31T10:10:03.614Z,53.78
2018-05-31T10:12:33.335Z,53.44
2018-05-31T10:15:02.574Z,53.95
2018-05-31T10:17:34.908Z,53.16
2018-05-31T10:20:04.038Z,53.50
2018-05-31T10:22:33.237Z,53.96
2018-05-31T10:25:02.197Z,53.89
2018-05-31T10:27:31.481Z,53.31
2018-05-31T10:30:02.759Z,53.54
2018-05-31T10:32:31.861Z,52.42
2018-05-31T10:35:01.405Z,52.99
2018-05-31T10:37:33.096Z,53.86
2018-05-31T10:40:02.239Z,53.53
2018-05-31T10:42:31.242Z,53.75
2018-05-31T10:45:00.682Z,54.24
2018-05-31T10:47:30.135Z,54.98
2018-05-31T10:49:59.436Z,53.77
2018-05-31T10:52:31.463Z,54.20
2018-05-31T10:55:00.955Z,53.70
2018-05-31T10:57:35.211Z,53.81
2018-05-31T11:00:04.718Z,53.53
2018-05-31T11:02:35.525Z,53.71
2018-05-31T11:05:04.890Z,53.58
2018-05-31T11:07:35.051Z,52.97
2018-05-31T11:10:04.793Z,53.55
2018-05-31T11:12:36.459Z,53.57
2018-05-31T11:15:05.628Z,52.87
2018-05-31T11:17:34.951Z,53.45
2018-05-31T11:20:04.374Z,53.57
2018-05-31T11:22:33.644Z,53.38
2018-05-31T11:25:03.104Z,53.15
2018-05-31T11:27:32.907Z,52.90
2018-05-31T11:30:05.007Z,52.32
2018-05-31T11:32:37.864Z,51.22
2018-05-31T11:35:07.213Z,50.77
2018-05-31T11:37:36.791Z,50.78
2018-05-31T11:40:05.990Z,49.63
2018-05-31T11:42:35.949Z,49.57
2018-05-31T11:45:05.554Z,50.44
2018-05-31T11:47:34.509Z,49.30
2018-05-31T11:50:04.064Z,48.04
2018-05-31T11:52:33.873Z,47.38
2018-05-31T11:55:03.399Z,47.96
2018-05-31T11:57:36.242Z,47.30
2018-05-31T12:00:10.180Z,46.72
2018-05-31T12:02:39.284Z,46.31
2018-05-31T12:05:10.427Z,45.94
2018-05-31T12:07:39.597Z,46.28
2018-05-31T12:10:08.735Z,46.11
2018-05-31T12:12:40.431Z,45.94
2018-05-31T12:15:07.266Z,45.76
2018-05-31T12:17:39.300Z,45.46
2018-05-31T12:20:08.267Z,45.61
2018-05-31T12:22:37.447Z,45.60
2018-05-31T12:25:06.481Z,46.00
2018-05-31T12:27:35.593Z,46.22
2018-05-31T12:30:06.724Z,45.89
2018-05-31T12:32:37.573Z,43.55
2018-05-31T12:35:09.946Z,44.14
2018-05-31T12:37:39.046Z,44.55
2018-05-31T12:40:11.777Z,44.41
2018-05-31T12:42:41.197Z,44.86
2018-05-31T12:45:14.818Z,45.03
2018-05-31T12:47:43.986Z,44.75
2018-05-31T12:50:13.211Z,45.76
2018-05-31T12:52:42.361Z,46.42
2018-05-31T12:55:14.740Z,45.83
2018-05-31T12:57:43.681Z,45.20
2018-05-31T13:00:13.066Z,44.67
2018-05-31T13:02:41.991Z,44.33
2018-05-31T13:05:11.359Z,43.81
2018-05-31T13:07:40.490Z,42.95
2018-05-31T13:10:09.867Z,43.70
2018-05-31T13:12:39.061Z,43.19
2018-05-31T13:15:11.326Z,43.88
2018-05-31T13:17:40.671Z,45.45
2018-05-31T13:20:09.973Z,44.77
2018-05-31T13:22:41.658Z,45.44
2018-05-31T13:25:11.065Z,44.83
2018-05-31T13:27:40.189Z,45.64
2018-05-31T13:30:11.652Z,45.77
2018-05-31T13:32:40.761Z,44.35
2018-05-31T13:35:09.964Z,45.60
2018-05-31T13:37:41.759Z,45.78
2018-05-31T13:40:10.653Z,46.71
2018-05-31T13:42:40.153Z,46.20
2018-05-31T13:45:08.929Z,47.79
2018-05-31T13:47:38.106Z,45.75
2018-05-31T13:50:07.118Z,45.26
2018-05-31T13:52:36.322Z,45.15
2018-05-31T13:55:05.593Z,45.81
2018-05-31T13:57:35.201Z,45.11
2018-05-31T14:00:04.377Z,45.64
2018-05-31T14:02:33.445Z,45.36
2018-05-31T14:05:05.019Z,45.02
2018-05-31T14:07:34.631Z,45.39
2018-05-31T14:10:03.870Z,46.07
2018-05-31T14:12:35.602Z,45.48
2018-05-31T14:15:04.723Z,46.41
2018-05-31T14:17:34.156Z,46.58
2018-05-31T14:20:03.763Z,47.56
2018-05-31T14:22:33.035Z,47.64
2018-05-31T14:25:02.223Z,48.29
2018-05-31T14:27:31.373Z,47.25
2018-05-31T14:30:00.786Z,48.54
2018-05-31T14:32:32.425Z,49.09
2018-05-31T14:35:01.478Z,49.06
2018-05-31T14:37:30.634Z,49.14
2018-05-31T14:40:02.279Z,50.35
2018-05-31T14:42:31.466Z,49.59
2018-05-31T14:45:01.069Z,49.23
2018-05-31T14:47:30.404Z,48.97
2018-05-31T14:50:00.076Z,49.29
2018-05-31T14:52:29.218Z,49.53
2018-05-31T14:55:14.591Z,50.07
2018-05-31T14:57:43.451Z,51.39
2018-05-31T15:00:12.361Z,51.92
2018-05-31T15:02:41.171Z,51.56
2018-05-31T15:05:10.020Z,51.68
2018-05-31T15:07:38.910Z,51.43
2018-05-31T15:10:07.786Z,51.06
2018-05-31T15:12:36.655Z,50.95
2018-05-31T15:15:05.519Z,51.06
2018-05-31T15:17:34.373Z,51.68
2018-05-31T15:20:03.256Z,52.24
2018-05-31T15:22:32.118Z,51.86
2018-05-31T15:25:00.974Z,51.21
2018-05-31T15:27:29.812Z,51.80
2018-05-31T15:29:58.685Z,51.50
2018-05-31T15:32:27.518Z,50.42
2018-05-31T15:34:56.451Z,50.21
2018-05-31T15:37:25.294Z,50.17
2018-05-31T15:39:54.161Z,49.94
2018-05-31T15:42:23.068Z,50.02
2018-05-31T15:44:51.908Z,50.83
2018-05-31T15:47:20.787Z,50.39
2018-05-31T15:49:49.630Z,51.41
2018-05-31T15:52:18.538Z,51.07
2018-05-31T15:54:47.410Z,50.70
2018-05-31T15:57:16.290Z,51.31
2018-05-31T15:59:45.161Z,50.50
2018-05-31T16:02:13.993Z,51.19
2018-05-31T16:04:42.857Z,51.92
2018-05-31T16:07:11.667Z,52.78
2018-05-31T16:09:40.524Z,52.45
2018-05-31T16:12:09.333Z,52.57
2018-05-31T16:14:38.171Z,53.08
2018-05-31T16:17:07.020Z,52.86
2018-05-31T16:19:35.890Z,53.40
2018-05-31T16:22:04.753Z,53.59
2018-05-31T16:24:33.595Z,53.40
2018-05-31T16:27:02.428Z,53.57
2018-05-31T16:29:31.286Z,54.39
2018-05-31T16:32:00.149Z,53.63
2018-05-31T16:34:28.995Z,53.36
2018-05-31T16:36:57.861Z,53.17
2018-05-31T16:39:26.734Z,53.07
2018-05-31T16:41:55.624Z,52.33
2018-05-31T16:44:24.502Z,52.14
2018-05-31T16:46:53.380Z,52.70
2018-05-31T16:49:22.210Z,53.48
2018-05-31T16:51:51.068Z,53.26
2018-05-31T16:54:19.910Z,52.67
2018-05-31T16:56:48.772Z,52.85
2018-05-31T16:59:17.649Z,51.78
2018-05-31T17:01:46.451Z,50.87
2018-05-31T17:04:15.311Z,49.73
2018-05-31T17:06:44.159Z,49.78
2018-05-31T17:09:13.039Z,49.19
2018-05-31T17:11:41.858Z,47.33
2018-05-31T17:14:10.770Z,49.20
2018-05-31T17:16:39.622Z,50.44
2018-05-31T17:19:08.477Z,50.39
2018-05-31T17:21:37.329Z,49.48
2018-05-31T17:24:06.160Z,49.66
2018-05-31T17:26:35.023Z,49.17
2018-05-31T17:29:03.945Z,48.60
2018-05-31T17:31:32.811Z,49.24
2018-05-31T17:34:01.668Z,49.50
2018-05-31T17:36:30.531Z,47.51
2018-05-31T17:38:59.419Z,48.15
2018-05-31T17:41:28.277Z,49.37
2018-05-31T17:43:57.113Z,49.77
2018-05-31T17:46:25.952Z,50.09
2018-05-31T17:48:54.780Z,50.22
2018-05-31T17:51:23.619Z,49.50
2018-05-31T17:53:52.458Z,49.73
2018-05-31T17:56:21.311Z,49.61
2018-05-31T17:58:50.121Z,49.87
2018-05-31T18:01:18.965Z,50.52
2018-05-31T18:03:47.786Z,50.46
2018-05-31T18:06:16.644Z,51.37
2018-05-31T18:08:45.487Z,51.87
2018-05-31T18:11:14.336Z,51.55
2018-05-31T18:13:43.178Z,52.49
2018-05-31T18:16:12.044Z,52.88
2018-05-31T18:18:40.880Z,52.67
2018-05-31T18:21:09.712Z,52.97
2018-05-31T18:23:38.533Z,52.72
2018-05-31T18:26:07.401Z,52.91
2018-05-31T18:28:36.228Z,53.50
2018-05-31T18:31:05.461Z,54.07
2018-05-31T18:33:37.480Z,54.91
2018-05-31T18:36:06.361Z,54.77
2018-05-31T18:38:35.203Z,55.68
2018-05-31T18:41:04.075Z,56.36
2018-05-31T18:43:32.947Z,56.71
2018-05-31T18:46:01.814Z,57.01
2018-05-31T18:48:30.615Z,57.51
2018-05-31T18:50:59.463Z,57.77
2018-05-31T18:53:28.307Z,57.95
2018-05-31T18:55:57.147Z,58.18
2018-05-31T18:58:26.007Z,58.84
2018-05-31T19:00:54.858Z,59.26
2018-05-31T19:03:23.738Z,59.71
2018-05-31T19:05:52.606Z,58.85
2018-05-31T19:08:21.597Z,59.62
2018-05-31T19:10:50.826Z,59.86
2018-05-31T19:13:38.807Z,59.79
2018-05-31T19:16:07.685Z,59.46
2018-05-31T19:18:55.680Z,58.86
2018-05-31T19:21:24.560Z,60.07
2018-05-31T19:23:53.389Z,60.66
2018-05-31T19:26:22.233Z,61.10
2018-05-31T19:28:51.047Z,61.33
2018-05-31T19:31:19.879Z,61.60
2018-05-31T19:33:48.716Z,61.05
2018-05-31T19:36:51.777Z,61.71
2018-05-31T19:39:20.714Z,61.32
2018-05-31T19:41:49.616Z,62.48
2018-05-31T19:44:37.584Z,62.13
2018-05-31T19:47:06.457Z,63.18
2018-05-31T19:49:35.290Z,62.90
2018-05-31T19:52:23.277Z,63.32
2018-05-31T19:54:52.133Z,63.72
2018-05-31T19:57:20.966Z,64.28
2018-05-31T20:00:07.773Z,64.86
2018-05-31T20:02:54.659Z,64.88
2018-05-31T20:05:23.497Z,65.19
2018-05-31T20:07:52.338Z,66.00
2018-05-31T20:10:21.263Z,66.47
2018-05-31T20:12:50.029Z,66.20
2018-05-31T20:15:18.890Z,66.64
2018-05-31T20:17:47.753Z,66.02
2018-05-31T20:20:16.593Z,66.81
2018-05-31T20:22:45.458Z,66.88
2018-05-31T20:25:14.304Z,67.25
2018-05-31T20:27:43.168Z,67.53
2018-05-31T20:30:12.055Z,67.98
2018-05-31T20:32:40.945Z,68.13
2018-05-31T20:35:09.812Z,67.85
2018-05-31T20:37:38.650Z,66.92
2018-05-31T20:40:07.546Z,67.47
2018-05-31T20:42:36.405Z,68.00
2018-05-31T20:45:05.301Z,68.52
2018-05-31T20:47:34.165Z,68.58
2018-05-31T20:50:03.019Z,68.80
2018-05-31T20:52:31.886Z,68.98
2018-05-31T20:55:00.741Z,69.40
2018-05-31T20:57:29.581Z,69.61
2018-05-31T20:59:58.456Z,69.34
2018-05-31T21:02:27.272Z,69.64
2018-05-31T21:04:56.137Z,69.87
2018-05-31T21:07:25.013Z,70.16
2018-05-31T21:09:53.871Z,70.30
2018-05-31T21:12:22.711Z,70.10
2018-05-31T21:14:51.583Z,69.91
2018-05-31T21:17:20.433Z,69.80
2018-05-31T21:19:49.262Z,69.54
2018-05-31T21:22:18.106Z,69.39
2018-05-31T21:24:46.972Z,69.37
2018-05-31T21:27:15.842Z,69.74
2018-05-31T21:29:44.669Z,69.77
2018-05-31T21:32:13.509Z,69.85
2018-05-31T21:34:42.379Z,70.20
2018-05-31T21:37:11.298Z,70.31
2018-05-31T21:39:40.088Z,70.78
2018-05-31T21:42:08.950Z,70.86
2018-05-31T21:44:37.841Z,70.86
2018-05-31T21:47:06.679Z,71.36
2018-05-31T21:49:35.541Z,71.80
2018-05-31T21:52:04.412Z,71.97
2018-05-31T21:54:33.234Z,72.39
2018-05-31T21:57:02.106Z,72.53
2018-05-31T21:59:30.947Z,72.62
2018-05-31T22:01:59.791Z,72.58
2018-05-31T22:04:28.638Z,72.62
2018-05-31T22:06:57.473Z,72.44
2018-05-31T22:09:26.362Z,72.31
2018-05-31T22:11:55.200Z,71.31
2018-05-31T22:14:24.065Z,71.36
2018-05-31T22:16:52.917Z,71.63
2018-05-31T22:19:21.748Z,71.90
2018-05-31T22:21:50.549Z,71.96
2018-05-31T22:24:19.376Z,71.63
2018-05-31T22:26:48.223Z,70.85
2018-05-31T22:29:17.062Z,70.84
2018-05-31T22:31:45.948Z,71.15
2018-05-31T22:34:14.779Z,71.36
2018-05-31T22:36:43.640Z,71.53
2018-05-31T22:39:12.479Z,71.30
2018-05-31T22:41:41.312Z,70.55
2018-05-31T22:44:10.148Z,70.83
2018-05-31T22:46:38.985Z,71.10
2018-05-31T22:49:07.838Z,70.87
2018-05-31T22:51:36.689Z,71.01
2018-05-31T22:54:05.541Z,71.26
2018-05-31T22:56:34.392Z,71.36
2018-05-31T22:59:03.256Z,71.09
2018-05-31T23:01:32.097Z,71.33
2018-05-31T23:04:00.967Z,71.65
2018-05-31T23:06:29.827Z,71.48
2018-05-31T23:08:58.657Z,71.95
2018-05-31T23:11:27.510Z,72.21
2018-05-31T23:13:56.344Z,72.35
2018-05-31T23:16:25.207Z,72.97
2018-05-31T23:18:54.084Z,73.19
2018-05-31T23:21:22.932Z,73.55
2018-05-31T23:23:51.786Z,72.43
2018-05-31T23:26:20.631Z,72.98
2018-05-31T23:28:49.441Z,72.59
2018-05-31T23:31:18.328Z,72.50
2018-05-31T23:33:47.213Z,73.04
2018-05-31T23:36:16.060Z,73.50
2018-05-31T23:38:44.912Z,71.95
2018-05-31T23:41:13.769Z,72.38
2018-05-31T23:43:42.646Z,72.26
2018-05-31T23:46:11.485Z,72.40
2018-05-31T23:48:40.351Z,72.55
2018-05-31T23:51:09.170Z,72.92
2018-05-31T23:53:38.031Z,73.10
2018-05-31T23:56:06.884Z,73.62
2018-05-31T23:58:35.744Z,73.62
